createdAt,value
2018-12-07T00:00:26.040Z,5.50
2018-12-07T00:02:54.203Z,5.23
2018-12-07T00:05:22.617Z,5.13
2018-12-07T00:07:50.849Z,4.67
2018-12-07T00:10:19.055Z,5.37
2018-12-07T00:12:47.253Z,5.13
2018-12-07T00:15:15.445Z,5.00
2018-12-07T00:17:43.644Z,5.53
2018-12-07T00:20:11.837Z,5.33
2018-12-07T00:22:40.040Z,5.00
2018-12-07T00:25:08.419Z,5.00
2018-12-07T00:27:36.654Z,6.13
2018-12-07T00:30:05.307Z,5.10
2018-12-07T00:32:33.619Z,5.50
2018-12-07T00:35:01.808Z,5.00
2018-12-07T00:37:30.001Z,4.77
2018-12-07T00:39:58.197Z,5.40
2018-12-07T00:42:26.403Z,4.90
2018-12-07T00:44:54.583Z,5.07
2018-12-07T00:47:22.889Z,5.23
2018-12-07T00:49:51.097Z,4.70
2018-12-07T00:52:19.279Z,5.47
2018-12-07T00:54:47.581Z,5.00
2018-12-07T00:57:15.813Z,4.53
2018-12-07T00:59:44.022Z,4.57
2018-12-07T01:02:12.209Z,5.13
2018-12-07T01:04:40.412Z,4.90
2018-12-07T01:07:08.609Z,4.90
2018-12-07T01:09:36.837Z,4.67
2018-12-07T01:12:05.192Z,5.37
2018-12-07T01:14:33.431Z,5.33
2018-12-07T01:17:01.575Z,5.07
2018-12-07T01:19:29.744Z,4.40
2018-12-07T01:21:57.902Z,4.73
2018-12-07T01:24:26.061Z,4.33
2018-12-07T01:26:54.212Z,4.57
2018-12-07T01:29:22.451Z,4.10
2018-12-07T01:31:50.606Z,4.40
2018-12-07T01:34:18.764Z,4.57
2018-12-07T01:36:46.919Z,3.73
2018-12-07T01:39:15.081Z,4.00
2018-12-07T01:41:43.228Z,4.50
2018-12-07T01:44:11.398Z,3.93
2018-12-07T01:46:39.626Z,4.10
2018-12-07T01:49:07.780Z,4.60
2018-12-07T01:51:35.932Z,4.10
2018-12-07T01:54:04.173Z,4.13
2018-12-07T01:56:32.320Z,3.97
2018-12-07T01:59:00.471Z,3.73
2018-12-07T02:01:28.611Z,4.07
2018-12-07T02:03:56.771Z,3.53
2018-12-07T02:06:24.915Z,4.60
2018-12-07T02:08:53.240Z,3.77
2018-12-07T02:11:21.416Z,3.60
2018-12-07T02:13:49.592Z,4.60
2018-12-07T02:16:17.752Z,3.60
2018-12-07T02:18:45.925Z,4.20
2018-12-07T02:21:14.176Z,3.30
2018-12-07T02:23:42.352Z,3.47
2018-12-07T02:26:10.520Z,3.50
2018-12-07T02:28:38.782Z,4.40
2018-12-07T02:31:06.936Z,3.50
2018-12-07T02:33:35.120Z,4.20
2018-12-07T02:36:03.369Z,3.43
2018-12-07T02:38:31.540Z,4.07
2018-12-07T02:40:59.709Z,3.33
2018-12-07T02:43:27.896Z,3.57
2018-12-07T02:45:56.070Z,3.40
2018-12-07T02:48:24.238Z,3.40
2018-12-07T02:50:52.457Z,3.50
2018-12-07T02:53:20.712Z,3.73
2018-12-07T02:55:48.910Z,2.93
2018-12-07T02:58:17.070Z,3.83
2018-12-07T03:00:45.236Z,4.70
2018-12-07T03:03:13.404Z,3.60
2018-12-07T03:05:41.577Z,4.00
2018-12-07T03:08:09.748Z,3.40
2018-12-07T03:10:37.933Z,3.33
2018-12-07T03:13:06.102Z,3.67
2018-12-07T03:15:34.268Z,3.33
2018-12-07T03:18:02.880Z,3.10
2018-12-07T03:20:31.052Z,3.33
2018-12-07T03:22:59.216Z,4.00
2018-12-07T03:25:28.507Z,4.23
2018-12-07T03:27:56.676Z,3.73
2018-12-07T03:30:24.953Z,3.87
2018-12-07T03:32:53.197Z,4.17
2018-12-07T03:35:21.368Z,4.20
2018-12-07T03:37:49.537Z,3.80
2018-12-07T03:40:17.708Z,3.77
2018-12-07T03:42:45.886Z,3.60
2018-12-07T03:45:14.085Z,3.80
2018-12-07T03:47:42.248Z,4.03
2018-12-07T03:50:10.424Z,4.00
2018-12-07T03:52:38.585Z,3.70
2018-12-07T03:55:06.760Z,3.47
2018-12-07T03:57:34.969Z,3.80
2018-12-07T04:00:03.392Z,3.10
2018-12-07T04:02:31.655Z,3.70
2018-12-07T04:04:59.832Z,3.20
2018-12-07T04:07:28.000Z,3.43
2018-12-07T04:09:56.177Z,3.93
2018-12-07T04:12:24.369Z,3.53
2018-12-07T04:14:52.544Z,4.00
2018-12-07T04:17:20.708Z,3.93
2018-12-07T04:19:48.972Z,4.30
2018-12-07T04:22:17.136Z,3.43
2018-12-07T04:24:45.305Z,4.07
2018-12-07T04:27:13.473Z,3.17
2018-12-07T04:29:41.646Z,3.37
2018-12-07T04:32:09.892Z,4.50
2018-12-07T04:34:38.082Z,3.10
2018-12-07T04:37:06.253Z,3.73
2018-12-07T04:39:34.425Z,3.30
2018-12-07T04:42:02.649Z,3.50
2018-12-07T04:44:30.815Z,3.30
2018-12-07T04:46:59.070Z,4.33
2018-12-07T04:49:27.245Z,3.30
2018-12-07T04:51:55.404Z,3.50
2018-12-07T04:54:23.584Z,3.20
2018-12-07T04:56:51.762Z,3.33
2018-12-07T04:59:19.977Z,3.63
2018-12-07T05:01:48.240Z,3.40
2018-12-07T05:04:16.560Z,3.63
2018-12-07T05:06:44.908Z,3.33
2018-12-07T05:09:13.076Z,3.20
2018-12-07T05:11:41.261Z,3.00
2018-12-07T05:14:09.435Z,3.50
2018-12-07T05:16:37.808Z,3.20
2018-12-07T05:19:05.996Z,2.80
2018-12-07T05:21:34.168Z,2.50
2018-12-07T05:24:02.332Z,2.90
2018-12-07T05:26:30.510Z,2.80
2018-12-07T05:28:58.712Z,2.87
2018-12-07T05:31:26.909Z,3.10
2018-12-07T05:33:55.302Z,2.73
2018-12-07T05:36:23.768Z,3.03
2018-12-07T05:38:51.956Z,2.63
2018-12-07T05:41:20.177Z,2.70
2018-12-07T05:43:56.294Z,3.10
2018-12-07T05:46:24.832Z,2.73
2018-12-07T05:48:53.156Z,2.50
2018-12-07T05:51:21.354Z,2.23
2018-12-07T05:53:49.547Z,2.00
2018-12-07T05:56:17.741Z,2.30
2018-12-07T05:58:45.937Z,2.43
2018-12-07T06:01:14.212Z,2.37
2018-12-07T06:03:42.421Z,2.00
2018-12-07T06:06:10.693Z,2.27
2018-12-07T06:08:38.887Z,2.70
2018-12-07T06:11:07.080Z,2.50
2018-12-07T06:13:35.253Z,2.30
2018-12-07T06:16:03.433Z,2.30
2018-12-07T06:18:31.605Z,2.00
2018-12-07T06:20:59.869Z,1.90
2018-12-07T06:23:28.052Z,1.80
2018-12-07T06:25:56.222Z,2.00
2018-12-07T06:28:24.392Z,2.43
2018-12-07T06:30:52.568Z,1.90
2018-12-07T06:33:20.831Z,1.83
2018-12-07T06:35:49.004Z,2.00
2018-12-07T06:38:17.172Z,1.73
2018-12-07T06:40:45.352Z,2.00
2018-12-07T06:43:13.516Z,1.90
2018-12-07T06:45:41.812Z,1.80
2018-12-07T06:48:09.980Z,1.57
2018-12-07T06:50:38.156Z,3.23
2018-12-07T06:53:06.374Z,2.80
2018-12-07T06:55:34.650Z,3.93
2018-12-07T06:58:09.458Z,2.90
2018-12-07T07:00:37.633Z,2.87
2018-12-07T07:03:05.808Z,2.10
2018-12-07T07:05:33.997Z,2.20
2018-12-07T07:08:02.165Z,2.00
2018-12-07T07:10:30.356Z,1.80
2018-12-07T07:12:58.535Z,2.13
2018-12-07T07:15:26.712Z,1.50
2018-12-07T07:17:54.894Z,1.60
2018-12-07T07:20:23.060Z,1.50
2018-12-07T07:22:51.232Z,1.50
2018-12-07T07:25:19.504Z,1.13
2018-12-07T07:27:47.676Z,1.40
2018-12-07T07:30:15.872Z,1.37
2018-12-07T07:32:44.051Z,1.30
2018-12-07T07:35:12.389Z,1.50
2018-12-07T07:37:40.572Z,1.30
2018-12-07T07:40:08.920Z,1.50
2018-12-07T07:42:37.116Z,1.33
2018-12-07T07:45:06.059Z,1.50
2018-12-07T07:47:34.236Z,1.23
2018-12-07T07:50:02.438Z,1.60
2018-12-07T07:52:30.601Z,1.47
2018-12-07T07:54:58.764Z,1.50
2018-12-07T07:57:26.945Z,1.20
2018-12-07T07:59:55.121Z,1.60
2018-12-07T08:02:23.369Z,1.67
2018-12-07T08:04:51.615Z,1.77
2018-12-07T08:07:19.884Z,1.97
2018-12-07T08:09:48.152Z,1.30
2018-12-07T08:12:16.334Z,1.40
2018-12-07T08:14:44.585Z,1.70
2018-12-07T08:17:12.765Z,1.27
2018-12-07T08:19:40.936Z,1.40
2018-12-07T08:22:09.109Z,1.27
2018-12-07T08:24:37.284Z,1.53
2018-12-07T08:27:05.557Z,1.50
2018-12-07T08:29:33.724Z,1.47
2018-12-07T08:32:01.907Z,1.67
2018-12-07T08:34:30.076Z,1.77
2018-12-07T08:36:58.260Z,1.30
2018-12-07T08:39:26.431Z,1.20
2018-12-07T08:41:54.609Z,1.27
2018-12-07T08:44:22.784Z,1.43
2018-12-07T08:46:51.026Z,1.30
2018-12-07T08:49:23.639Z,1.07
2018-12-07T08:51:51.821Z,1.23
2018-12-07T08:54:19.996Z,1.23
2018-12-07T08:56:48.260Z,1.37
2018-12-07T08:59:16.604Z,1.30
2018-12-07T09:01:44.868Z,1.50
2018-12-07T09:04:13.036Z,1.70
2018-12-07T09:06:41.400Z,1.33
2018-12-07T09:09:09.656Z,1.23
2018-12-07T09:11:38.052Z,1.40
2018-12-07T09:14:06.244Z,1.33
2018-12-07T09:16:34.441Z,1.43
2018-12-07T09:19:02.628Z,1.60
2018-12-07T09:21:30.832Z,1.60
2018-12-07T09:23:59.117Z,1.60
2018-12-07T09:26:27.316Z,1.57
2018-12-07T09:28:55.516Z,1.40
2018-12-07T09:31:23.725Z,1.73
2018-12-07T09:33:51.929Z,1.80
2018-12-07T09:36:20.142Z,1.83
2018-12-07T09:38:48.507Z,1.40
2018-12-07T09:41:16.693Z,1.13
2018-12-07T09:43:44.902Z,1.40
2018-12-07T09:46:13.189Z,1.30
2018-12-07T09:48:41.385Z,1.50
2018-12-07T09:51:09.577Z,1.83
2018-12-07T09:53:37.773Z,1.40
2018-12-07T09:56:05.964Z,1.30
2018-12-07T09:58:34.164Z,1.27
2018-12-07T10:01:02.456Z,1.30
2018-12-07T10:03:30.660Z,1.10
2018-12-07T10:05:58.852Z,1.33
2018-12-07T10:08:27.274Z,1.10
2018-12-07T10:10:55.488Z,1.47
2018-12-07T10:13:23.689Z,1.10
2018-12-07T10:15:51.884Z,1.93
2018-12-07T10:18:20.101Z,1.77
2018-12-07T10:20:48.793Z,1.73
2018-12-07T10:23:17.024Z,2.83
2018-12-07T10:25:45.232Z,1.93
2018-12-07T10:28:13.440Z,2.43
2018-12-07T10:30:41.628Z,2.50
2018-12-07T10:33:09.820Z,4.37
2018-12-07T10:35:38.061Z,2.40
2018-12-07T10:38:06.267Z,1.57
2018-12-07T10:40:34.460Z,1.87
2018-12-07T10:43:02.660Z,1.83
2018-12-07T10:45:30.947Z,1.57
2018-12-07T10:47:59.148Z,1.80
2018-12-07T10:50:27.344Z,1.60
2018-12-07T10:52:55.632Z,1.40
2018-12-07T10:55:23.825Z,1.50
2018-12-07T10:57:52.021Z,1.50
2018-12-07T11:00:25.608Z,1.20
2018-12-07T11:02:59.211Z,1.20
2018-12-07T11:05:32.848Z,1.47
2018-12-07T11:08:06.547Z,1.27
2018-12-07T11:11:38.820Z,1.50
2018-12-07T11:14:13.004Z,1.70
2018-12-07T11:16:46.784Z,1.20
2018-12-07T11:19:20.281Z,1.40
2018-12-07T11:21:53.998Z,1.50
2018-12-07T11:24:27.725Z,1.20
2018-12-07T11:27:01.454Z,1.20
2018-12-07T11:29:34.975Z,1.10
2018-12-07T11:32:08.636Z,1.10
2018-12-07T11:34:41.076Z,1.10
2018-12-07T11:37:09.607Z,1.00
2018-12-07T11:39:37.809Z,1.23
2018-12-07T11:42:06.088Z,1.13
2018-12-07T11:44:34.283Z,1.00
2018-12-07T11:47:02.476Z,1.20
2018-12-07T11:49:33.111Z,1.20
2018-12-07T11:52:01.509Z,0.90
2018-12-07T11:54:29.708Z,1.00
2018-12-07T11:56:57.887Z,1.10
2018-12-07T11:59:26.089Z,1.17
2018-12-07T12:01:54.465Z,1.10
2018-12-07T12:04:22.660Z,1.00
2018-12-07T12:06:50.856Z,1.00
2018-12-07T12:09:19.084Z,1.10
2018-12-07T12:11:47.301Z,0.80
2018-12-07T12:14:15.512Z,0.70
2018-12-07T12:16:43.708Z,0.80
2018-12-07T12:19:11.916Z,0.93
2018-12-07T12:21:40.108Z,0.90
2018-12-07T12:24:08.316Z,0.80
2018-12-07T12:26:36.504Z,0.90
2018-12-07T12:29:04.960Z,0.87
2018-12-07T12:31:33.238Z,0.70
2018-12-07T12:34:01.441Z,0.90
2018-12-07T12:36:29.644Z,0.77
2018-12-07T12:38:57.929Z,0.90
2018-12-07T12:41:26.145Z,0.77
2018-12-07T12:43:54.332Z,0.80
2018-12-07T12:46:22.536Z,0.80
2018-12-07T12:48:50.820Z,0.70
2018-12-07T12:51:19.112Z,1.00
2018-12-07T12:53:47.401Z,0.77
2018-12-07T12:56:15.601Z,0.80
2018-12-07T12:58:43.788Z,1.00
2018-12-07T13:01:12.032Z,0.80
2018-12-07T13:03:40.238Z,0.90
2018-12-07T13:06:08.440Z,0.90
2018-12-07T13:08:36.680Z,1.10
2018-12-07T13:11:05.028Z,0.80
2018-12-07T13:13:33.239Z,1.00
2018-12-07T13:16:01.453Z,0.60
2018-12-07T13:18:29.728Z,0.80
2018-12-07T13:20:57.910Z,0.90
2018-12-07T13:23:26.097Z,0.80
2018-12-07T13:25:54.352Z,0.70
2018-12-07T13:28:22.645Z,0.70
2018-12-07T13:30:51.009Z,0.90
2018-12-07T13:33:19.202Z,0.80
2018-12-07T13:35:47.408Z,0.90
2018-12-07T13:38:15.604Z,0.80
2018-12-07T13:40:43.941Z,0.80
2018-12-07T13:43:12.348Z,1.07
2018-12-07T13:45:41.028Z,0.90
2018-12-07T13:48:09.425Z,0.90
2018-12-07T13:50:41.422Z,0.80
2018-12-07T13:53:09.723Z,1.10
2018-12-07T13:55:38.678Z,0.80
2018-12-07T13:58:07.599Z,0.80
2018-12-07T14:00:36.146Z,0.90
2018-12-07T14:03:04.586Z,0.90
2018-12-07T14:05:33.025Z,0.90
2018-12-07T14:08:01.481Z,1.00
2018-12-07T14:10:29.948Z,0.90
2018-12-07T14:12:58.223Z,1.13
2018-12-07T14:15:26.466Z,1.00
2018-12-07T14:17:54.875Z,0.90
2018-12-07T14:20:23.228Z,0.97
2018-12-07T14:22:51.556Z,1.00
2018-12-07T14:25:19.988Z,1.70
2018-12-07T14:27:48.189Z,1.03
2018-12-07T14:30:16.444Z,1.47
2018-12-07T14:32:44.725Z,1.40
2018-12-07T14:35:13.211Z,1.27
2018-12-07T14:37:41.624Z,1.07
2018-12-07T14:40:10.153Z,1.30
2018-12-07T14:42:38.467Z,1.10
2018-12-07T14:45:07.784Z,3.50
2018-12-07T14:47:36.271Z,1.10
2018-12-07T14:50:05.265Z,1.53
2018-12-07T14:52:33.545Z,1.27
2018-12-07T14:55:01.848Z,1.30
2018-12-07T14:57:30.279Z,1.67
2018-12-07T14:59:58.535Z,1.50
2018-12-07T15:02:26.929Z,1.57
2018-12-07T15:04:55.184Z,1.40
2018-12-07T15:07:23.517Z,1.80
2018-12-07T15:09:51.940Z,1.67
2018-12-07T15:12:20.638Z,1.40
2018-12-07T15:14:49.074Z,1.80
2018-12-07T15:17:17.576Z,2.77
2018-12-07T15:19:45.840Z,3.50
2018-12-07T15:22:14.079Z,2.13
2018-12-07T15:24:42.436Z,2.07
2018-12-07T15:27:10.651Z,1.87
2018-12-07T15:29:38.892Z,2.47
2018-12-07T15:32:07.203Z,1.47
2018-12-07T15:34:35.600Z,1.90
2018-12-07T15:37:03.901Z,5.97
2018-12-07T15:39:32.064Z,1.60
2018-12-07T15:42:00.365Z,1.80
2018-12-07T15:44:28.797Z,1.30
2018-12-07T15:46:57.129Z,1.83
2018-12-07T15:49:25.663Z,1.50
2018-12-07T15:51:54.110Z,1.97
2018-12-07T15:54:22.556Z,3.30
2018-12-07T15:56:51.075Z,2.30
2018-12-07T15:59:19.308Z,1.73
2018-12-07T16:01:47.625Z,1.73
2018-12-07T16:04:16.039Z,2.10
2018-12-07T16:06:44.336Z,1.70
2018-12-07T16:09:12.653Z,1.80
2018-12-07T16:11:41.133Z,1.90
2018-12-07T16:14:09.433Z,3.00
2018-12-07T16:16:37.998Z,2.77
2018-12-07T16:19:06.355Z,2.10
2018-12-07T16:21:34.683Z,2.00
2018-12-07T16:24:03.043Z,2.23
2018-12-07T16:26:31.404Z,2.30
2018-12-07T16:28:59.602Z,2.63
2018-12-07T16:31:27.890Z,1.50
2018-12-07T16:33:56.222Z,4.80
2018-12-07T16:36:24.508Z,2.70
2018-12-07T16:38:52.797Z,1.87
2018-12-07T16:41:21.131Z,1.93
2018-12-07T16:43:49.447Z,1.40
2018-12-07T16:46:17.659Z,1.20
2018-12-07T16:48:46.096Z,1.27
2018-12-07T16:51:14.621Z,1.97
2018-12-07T16:53:42.912Z,1.60
2018-12-07T16:56:11.178Z,1.60
2018-12-07T16:58:39.603Z,1.40
2018-12-07T17:01:08.067Z,1.70
2018-12-07T17:03:36.449Z,1.60
2018-12-07T17:06:04.817Z,1.97
2018-12-07T17:08:33.239Z,1.93
2018-12-07T17:11:01.478Z,2.93
2018-12-07T17:13:29.805Z,1.70
2018-12-07T17:15:58.004Z,1.80
2018-12-07T17:18:26.409Z,2.37
2018-12-07T17:20:54.742Z,2.43
2018-12-07T17:23:22.988Z,3.67
2018-12-07T17:25:51.162Z,3.10
2018-12-07T17:28:19.577Z,3.93
2018-12-07T17:30:47.929Z,3.43
2018-12-07T17:33:16.311Z,2.63
2018-12-07T17:35:44.728Z,2.97
2018-12-07T17:38:13.075Z,1.77
2018-12-07T17:40:41.348Z,2.50
2018-12-07T17:43:09.549Z,3.20
2018-12-07T17:45:38.002Z,2.63
2018-12-07T17:48:06.346Z,2.73
2018-12-07T17:50:34.685Z,2.50
2018-12-07T17:53:02.870Z,2.70
2018-12-07T17:55:31.231Z,2.40
2018-12-07T17:57:59.757Z,1.67
2018-12-07T18:00:28.179Z,1.50
2018-12-07T18:02:56.555Z,2.60
2018-12-07T18:05:24.840Z,1.90
2018-12-07T18:07:53.266Z,1.47
2018-12-07T18:10:21.745Z,2.30
2018-12-07T18:12:50.121Z,2.30
2018-12-07T18:15:18.583Z,2.03
2018-12-07T18:17:47.087Z,2.67
2018-12-07T18:20:15.521Z,2.20
2018-12-07T18:22:43.787Z,2.20
2018-12-07T18:25:12.068Z,2.03
2018-12-07T18:27:40.549Z,2.30
2018-12-07T18:30:09.162Z,2.57
2018-12-07T18:32:37.522Z,2.40
2018-12-07T18:35:06.079Z,2.70
2018-12-07T18:37:34.625Z,3.00
2018-12-07T18:40:03.058Z,2.70
2018-12-07T18:42:31.750Z,2.67
2018-12-07T18:45:00.176Z,2.50
2018-12-07T18:47:28.479Z,2.40
2018-12-07T18:49:58.284Z,1.40
2018-12-07T18:52:27.259Z,2.27
2018-12-07T18:54:55.792Z,2.40
2018-12-07T18:57:24.251Z,3.23
2018-12-07T18:59:52.803Z,3.17
2018-12-07T19:02:21.351Z,3.73
2018-12-07T19:04:50.620Z,3.60
2018-12-07T19:07:19.041Z,3.17
2018-12-07T19:09:47.395Z,2.97
2018-12-07T19:12:15.863Z,2.90
2018-12-07T19:14:44.204Z,3.97
2018-12-07T19:17:12.470Z,3.63
2018-12-07T19:19:40.921Z,2.90
2018-12-07T19:22:09.368Z,3.17
2018-12-07T19:24:37.780Z,3.03
2018-12-07T19:27:06.166Z,3.33
2018-12-07T19:29:34.743Z,4.37
2018-12-07T19:32:03.204Z,3.80
2018-12-07T19:34:31.657Z,3.20
2018-12-07T19:37:00.069Z,3.23
2018-12-07T19:39:28.326Z,3.67
2018-12-07T19:41:56.548Z,4.40
2018-12-07T19:44:24.720Z,4.20
2018-12-07T19:46:53.226Z,4.20
2018-12-07T19:49:21.680Z,3.57
2018-12-07T19:51:50.009Z,3.87
2018-12-07T19:54:18.377Z,4.07
2018-12-07T19:56:46.545Z,4.00
2018-12-07T19:59:15.170Z,3.70
2018-12-07T20:01:43.567Z,3.50
2018-12-07T20:04:11.958Z,3.90
2018-12-07T20:06:40.592Z,4.00
2018-12-07T20:09:09.084Z,4.00
2018-12-07T20:11:37.541Z,4.67
2018-12-07T20:14:06.616Z,4.00
2018-12-07T20:16:34.988Z,4.10
2018-12-07T20:19:03.461Z,3.97
2018-12-07T20:21:31.780Z,3.93
2018-12-07T20:24:00.027Z,4.37
2018-12-07T20:26:28.515Z,4.03
2018-12-07T20:28:56.836Z,3.33
2018-12-07T20:31:25.028Z,3.60
2018-12-07T20:33:53.225Z,5.30
2018-12-07T20:36:21.546Z,3.70
2018-12-07T20:38:50.004Z,3.97
2018-12-07T20:41:18.353Z,3.90
2018-12-07T20:43:46.559Z,4.00
2018-12-07T20:46:14.969Z,3.37
2018-12-07T20:48:43.406Z,2.70
2018-12-07T20:51:12.008Z,2.30
2018-12-07T20:53:40.199Z,2.30
2018-12-07T20:56:08.483Z,3.30
2018-12-07T20:58:36.919Z,2.50
2018-12-07T21:01:05.402Z,4.10
2018-12-07T21:03:44.764Z,3.43
2018-12-07T21:07:33.734Z,1.83
2018-12-07T21:10:30.534Z,1.87
2018-12-07T21:13:16.852Z,2.03
2018-12-07T21:15:45.189Z,2.17
2018-12-07T21:18:13.465Z,1.80
2018-12-07T21:20:41.722Z,1.53
2018-12-07T21:23:10.001Z,1.90
2018-12-07T21:25:38.698Z,1.90
2018-12-07T21:28:06.969Z,1.70
2018-12-07T21:30:49.745Z,1.90
2018-12-07T21:33:22.626Z,1.97
2018-12-07T21:36:17.181Z,2.07
2018-12-07T21:38:45.364Z,1.57
2018-12-07T21:41:13.556Z,2.17
2018-12-07T21:43:41.847Z,2.17
2018-12-07T21:46:10.349Z,2.27
2018-12-07T21:48:39.577Z,1.50
2018-12-07T21:52:28.082Z,1.80
2018-12-07T21:54:56.569Z,1.40
2018-12-07T21:57:24.994Z,1.43
2018-12-07T21:59:53.418Z,1.40
2018-12-07T22:02:21.698Z,1.70
2018-12-07T22:04:50.062Z,1.30
2018-12-07T22:07:18.397Z,2.60
2018-12-07T22:09:46.908Z,1.30
2018-12-07T22:12:15.270Z,1.10
2018-12-07T22:14:43.597Z,0.70
2018-12-07T22:17:12.016Z,0.67
2018-12-07T22:19:40.374Z,0.63
2018-12-07T22:22:08.891Z,0.70
2018-12-07T22:24:37.184Z,0.70
2018-12-07T22:27:05.492Z,0.60
2018-12-07T22:29:33.917Z,0.80
2018-12-07T22:32:02.353Z,0.60
2018-12-07T22:34:30.572Z,0.70
2018-12-07T22:36:59.026Z,0.80
2018-12-07T22:39:27.650Z,0.70
2018-12-07T22:41:56.083Z,0.70
2018-12-07T22:44:24.376Z,0.60
2018-12-07T22:46:52.535Z,0.70
2018-12-07T22:49:20.705Z,0.50
2018-12-07T22:51:48.868Z,0.83
2018-12-07T22:54:17.056Z,0.80
2018-12-07T22:56:45.308Z,1.20
2018-12-07T22:59:13.636Z,0.90
2018-12-07T23:01:41.960Z,0.77
2018-12-07T23:04:10.300Z,0.73
2018-12-07T23:06:38.848Z,0.60
2018-12-07T23:09:07.837Z,0.70
2018-12-07T23:11:36.035Z,0.83
2018-12-07T23:14:04.412Z,0.70
2018-12-07T23:16:32.684Z,0.90
2018-12-07T23:19:00.873Z,1.10
2018-12-07T23:21:29.152Z,0.93
2018-12-07T23:23:57.336Z,0.63
2018-12-07T23:26:25.520Z,0.70
2018-12-07T23:28:53.711Z,0.70
2018-12-07T23:31:21.988Z,1.10
2018-12-07T23:33:50.190Z,0.93
2018-12-07T23:36:18.460Z,1.03
2018-12-07T23:38:46.656Z,0.87
2018-12-07T23:41:14.932Z,0.70
2018-12-07T23:43:43.198Z,0.90
2018-12-07T23:46:11.396Z,0.93
2018-12-07T23:48:39.597Z,1.17
2018-12-07T23:51:07.776Z,0.83
2018-12-07T23:53:35.964Z,0.80
2018-12-07T23:56:04.243Z,1.30
2018-12-07T23:58:32.432Z,1.00
